sensor_id;sensor_type;location;lat;lon;timestamp;temperature;humidity
23591;DHT22;11973;52.098;7.582;2023-02-01T00:00:06;5.00;99.90
23591;DHT22;11973;52.098;7.582;2023-02-01T00:02:32;5.00;99.90
23591;DHT22;11973;52.098;7.582;2023-02-01T00:04:58;5.00;99.90
23591;DHT22;11973;52.098;7.582;2023-02-01T00:07:24;5.00;99.90
23591;DHT22;11973;52.098;7.582;2023-02-01T00:09:49;5.00;99.90
23591;DHT22;11973;52.098;7.582;2023-02-01T00:12:15;5.00;99.90
23591;DHT22;11973;52.098;7.582;2023-02-01T00:14:41;5.00;99.90
23591;DHT22;11973;52.098;7.582;2023-02-01T00:17:06;5.00;99.90
23591;DHT22;11973;52.098;7.582;2023-02-01T00:19:32;5.10;99.90
23591;DHT22;11973;52.098;7.582;2023-02-01T00:21:59;5.10;99.90
23591;DHT22;11973;52.098;7.582;2023-02-01T00:24:24;5.10;99.90
23591;DHT22;11973;52.098;7.582;2023-02-01T00:26:50;5.10;99.90
23591;DHT22;11973;52.098;7.582;2023-02-01T00:29:18;5.00;99.90
23591;DHT22;11973;52.098;7.582;2023-02-01T00:31:44;5.00;99.90
23591;DHT22;11973;52.098;7.582;2023-02-01T00:34:15;5.00;99.90
23591;DHT22;11973;52.098;7.582;2023-02-01T00:36:42;5.10;99.90
23591;DHT22;11973;52.098;7.582;2023-02-01T00:39:09;5.10;99.90
23591;DHT22;11973;52.098;7.582;2023-02-01T00:41:36;5.10;99.90
23591;DHT22;11973;52.098;7.582;2023-02-01T00:44:02;5.10;99.90
23591;DHT22;11973;52.098;7.582;2023-02-01T00:46:29;5.10;99.90
23591;DHT22;11973;52.098;7.582;2023-02-01T00:48:55;5.10;99.90
23591;DHT22;11973;52.098;7.582;2023-02-01T00:51:23;5.10;99.90
23591;DHT22;11973;52.098;7.582;2023-02-01T00:53:50;5.10;99.90
23591;DHT22;11973;52.098;7.582;2023-02-01T00:56:16;5.10;99.90
23591;DHT22;11973;52.098;7.582;2023-02-01T00:58:42;5.10;99.90
23591;DHT22;11973;52.098;7.582;2023-02-01T01:01:22;5.10;99.90
23591;DHT22;11973;52.098;7.582;2023-02-01T01:03:54;5.10;99.90
23591;DHT22;11973;52.098;7.582;2023-02-01T01:06:25;5.10;99.90
23591;DHT22;11973;52.098;7.582;2023-02-01T01:08:53;5.20;99.90
23591;DHT22;11973;52.098;7.582;2023-02-01T01:11:22;5.10;99.90
23591;DHT22;11973;52.098;7.582;2023-02-01T01:13:50;5.20;99.90
23591;DHT22;11973;52.098;7.582;2023-02-01T01:16:17;5.10;99.90
23591;DHT22;11973;52.098;7.582;2023-02-01T01:18:43;5.10;99.90
23591;DHT22;11973;52.098;7.582;2023-02-01T01:21:11;5.10;99.90
23591;DHT22;11973;52.098;7.582;2023-02-01T01:23:37;5.20;99.90
23591;DHT22;11973;52.098;7.582;2023-02-01T01:26:17;5.20;99.90
23591;DHT22;11973;52.098;7.582;2023-02-01T01:28:43;5.20;99.90
23591;DHT22;11973;52.098;7.582;2023-02-01T01:31:10;5.20;99.90
23591;DHT22;11973;52.098;7.582;2023-02-01T01:33:36;5.20;99.90
23591;DHT22;11973;52.098;7.582;2023-02-01T01:36:05;5.30;99.90
23591;DHT22;11973;52.098;7.582;2023-02-01T01:38:30;5.30;99.90
23591;DHT22;11973;52.098;7.582;2023-02-01T01:40:58;5.30;99.90
23591;DHT22;11973;52.098;7.582;2023-02-01T01:43:23;5.30;99.90
23591;DHT22;11973;52.098;7.582;2023-02-01T01:45:51;5.30;99.90
23591;DHT22;11973;52.098;7.582;2023-02-01T01:48:24;5.30;99.90
23591;DHT22;11973;52.098;7.582;2023-02-01T01:51:01;5.30;99.90
23591;DHT22;11973;52.098;7.582;2023-02-01T01:53:33;5.40;99.90
23591;DHT22;11973;52.098;7.582;2023-02-01T01:56:02;5.40;99.90
23591;DHT22;11973;52.098;7.582;2023-02-01T01:58:29;5.40;99.90
23591;DHT22;11973;52.098;7.582;2023-02-01T02:00:57;5.40;99.90
23591;DHT22;11973;52.098;7.582;2023-02-01T02:03:37;5.50;99.90
23591;DHT22;11973;52.098;7.582;2023-02-01T02:06:08;5.50;99.90
23591;DHT22;11973;52.098;7.582;2023-02-01T02:08:39;5.50;99.90
23591;DHT22;11973;52.098;7.582;2023-02-01T02:11:07;5.50;99.90
23591;DHT22;11973;52.098;7.582;2023-02-01T02:13:38;5.50;99.90
23591;DHT22;11973;52.098;7.582;2023-02-01T02:24:49;5.50;99.90
23591;DHT22;11973;52.098;7.582;2023-02-01T02:33:23;5.50;99.90
23591;DHT22;11973;52.098;7.582;2023-02-01T02:38:56;5.50;99.90
23591;DHT22;11973;52.098;7.582;2023-02-01T02:41:46;5.50;99.90
23591;DHT22;11973;52.098;7.582;2023-02-01T02:44:35;5.40;99.90
23591;DHT22;11973;52.098;7.582;2023-02-01T02:47:27;5.40;99.90
23591;DHT22;11973;52.098;7.582;2023-02-01T02:50:18;5.40;99.90
23591;DHT22;11973;52.098;7.582;2023-02-01T02:53:34;5.40;99.90
23591;DHT22;11973;52.098;7.582;2023-02-01T02:56:21;5.40;99.90
23591;DHT22;11973;52.098;7.582;2023-02-01T02:59:09;5.40;99.90
23591;DHT22;11973;52.098;7.582;2023-02-01T03:01:55;5.40;99.90
23591;DHT22;11973;52.098;7.582;2023-02-01T03:04:39;5.40;99.90
23591;DHT22;11973;52.098;7.582;2023-02-01T03:07:46;5.40;99.90
23591;DHT22;11973;52.098;7.582;2023-02-01T03:12:50;5.30;99.90
23591;DHT22;11973;52.098;7.582;2023-02-01T03:15:40;5.30;99.90
23591;DHT22;11973;52.098;7.582;2023-02-01T03:18:14;5.30;99.90
23591;DHT22;11973;52.098;7.582;2023-02-01T03:20:45;5.30;99.90
23591;DHT22;11973;52.098;7.582;2023-02-01T03:23:14;5.30;99.90
23591;DHT22;11973;52.098;7.582;2023-02-01T03:25:42;5.30;99.90
23591;DHT22;11973;52.098;7.582;2023-02-01T03:28:09;5.30;99.90
23591;DHT22;11973;52.098;7.582;2023-02-01T03:30:38;5.20;99.90
23591;DHT22;11973;52.098;7.582;2023-02-01T03:33:09;5.30;99.90
23591;DHT22;11973;52.098;7.582;2023-02-01T03:36:08;5.20;99.90
23591;DHT22;11973;52.098;7.582;2023-02-01T03:38:49;5.30;99.90
23591;DHT22;11973;52.098;7.582;2023-02-01T03:41:53;5.20;99.90
23591;DHT22;11973;52.098;7.582;2023-02-01T03:44:29;5.30;99.90
23591;DHT22;11973;52.098;7.582;2023-02-01T03:47:08;5.30;99.90
23591;DHT22;11973;52.098;7.582;2023-02-01T03:49:36;5.30;99.90
23591;DHT22;11973;52.098;7.582;2023-02-01T03:52:06;5.30;99.90
23591;DHT22;11973;52.098;7.582;2023-02-01T03:54:35;5.30;99.90
23591;DHT22;11973;52.098;7.582;2023-02-01T03:57:07;5.30;99.90
23591;DHT22;11973;52.098;7.582;2023-02-01T03:59:33;5.50;99.90
23591;DHT22;11973;52.098;7.582;2023-02-01T04:02:00;5.40;99.90
23591;DHT22;11973;52.098;7.582;2023-02-01T04:04:26;5.60;99.90
23591;DHT22;11973;52.098;7.582;2023-02-01T04:06:53;5.40;99.90
23591;DHT22;11973;52.098;7.582;2023-02-01T04:09:20;5.50;99.90
23591;DHT22;11973;52.098;7.582;2023-02-01T04:11:45;5.50;99.90
23591;DHT22;11973;52.098;7.582;2023-02-01T04:14:11;5.50;99.90
23591;DHT22;11973;52.098;7.582;2023-02-01T04:16:37;5.50;99.90
23591;DHT22;11973;52.098;7.582;2023-02-01T04:19:02;5.50;99.90
23591;DHT22;11973;52.098;7.582;2023-02-01T04:21:28;5.60;99.90
23591;DHT22;11973;52.098;7.582;2023-02-01T04:23:54;5.60;99.90
23591;DHT22;11973;52.098;7.582;2023-02-01T04:26:20;5.60;99.90
23591;DHT22;11973;52.098;7.582;2023-02-01T04:28:47;5.60;99.90
23591;DHT22;11973;52.098;7.582;2023-02-01T04:31:16;5.70;99.90
23591;DHT22;11973;52.098;7.582;2023-02-01T04:33:43;5.70;99.90
23591;DHT22;11973;52.098;7.582;2023-02-01T04:36:09;5.70;99.90
23591;DHT22;11973;52.098;7.582;2023-02-01T04:38:35;5.70;99.90
23591;DHT22;11973;52.098;7.582;2023-02-01T04:41:01;5.70;99.90
23591;DHT22;11973;52.098;7.582;2023-02-01T04:43:26;5.70;99.90
23591;DHT22;11973;52.098;7.582;2023-02-01T04:45:52;5.80;99.90
23591;DHT22;11973;52.098;7.582;2023-02-01T04:48:20;5.70;99.90
23591;DHT22;11973;52.098;7.582;2023-02-01T04:50:48;5.80;99.90
23591;DHT22;11973;52.098;7.582;2023-02-01T04:53:17;5.80;99.90
23591;DHT22;11973;52.098;7.582;2023-02-01T04:55:43;5.90;99.90
23591;DHT22;11973;52.098;7.582;2023-02-01T04:58:10;5.80;99.90
23591;DHT22;11973;52.098;7.582;2023-02-01T05:00:37;5.80;99.90
23591;DHT22;11973;52.098;7.582;2023-02-01T05:03:03;5.80;99.90
23591;DHT22;11973;52.098;7.582;2023-02-01T05:05:29;5.80;99.90
23591;DHT22;11973;52.098;7.582;2023-02-01T05:07:55;5.80;99.90
23591;DHT22;11973;52.098;7.582;2023-02-01T05:10:21;5.80;99.90
23591;DHT22;11973;52.098;7.582;2023-02-01T05:12:47;5.80;99.90
23591;DHT22;11973;52.098;7.582;2023-02-01T06:17:38;5.80;99.90
23591;DHT22;11973;52.098;7.582;2023-02-01T06:20:05;5.90;99.90
23591;DHT22;11973;52.098;7.582;2023-02-01T06:22:32;5.90;99.90
23591;DHT22;11973;52.098;7.582;2023-02-01T06:24:58;5.90;99.90
23591;DHT22;11973;52.098;7.582;2023-02-01T06:27:25;5.90;99.90
23591;DHT22;11973;52.098;7.582;2023-02-01T06:29:50;5.90;99.90
23591;DHT22;11973;52.098;7.582;2023-02-01T06:32:18;5.90;99.90
23591;DHT22;11973;52.098;7.582;2023-02-01T06:34:44;5.90;99.90
23591;DHT22;11973;52.098;7.582;2023-02-01T06:37:09;5.90;99.90
23591;DHT22;11973;52.098;7.582;2023-02-01T06:39:36;6.00;99.90
23591;DHT22;11973;52.098;7.582;2023-02-01T06:42:03;6.00;99.90
23591;DHT22;11973;52.098;7.582;2023-02-01T06:44:28;6.00;99.90
23591;DHT22;11973;52.098;7.582;2023-02-01T06:46:54;6.00;99.90
23591;DHT22;11973;52.098;7.582;2023-02-01T06:49:20;6.00;99.90
23591;DHT22;11973;52.098;7.582;2023-02-01T06:51:46;6.00;99.90
23591;DHT22;11973;52.098;7.582;2023-02-01T06:54:12;6.10;99.90
23591;DHT22;11973;52.098;7.582;2023-02-01T06:56:38;6.10;99.90
23591;DHT22;11973;52.098;7.582;2023-02-01T06:59:07;6.10;99.90
23591;DHT22;11973;52.098;7.582;2023-02-01T07:01:34;6.10;99.90
23591;DHT22;11973;52.098;7.582;2023-02-01T07:03:59;6.10;99.90
23591;DHT22;11973;52.098;7.582;2023-02-01T07:06:25;6.10;99.90
23591;DHT22;11973;52.098;7.582;2023-02-01T07:08:51;6.10;99.90
23591;DHT22;11973;52.098;7.582;2023-02-01T07:11:18;6.10;99.90
23591;DHT22;11973;52.098;7.582;2023-02-01T07:13:44;6.10;99.90
23591;DHT22;11973;52.098;7.582;2023-02-01T07:16:12;6.10;99.90
23591;DHT22;11973;52.098;7.582;2023-02-01T07:18:39;6.10;99.90
23591;DHT22;11973;52.098;7.582;2023-02-01T07:21:05;6.10;99.90
23591;DHT22;11973;52.098;7.582;2023-02-01T07:23:31;6.10;99.90
23591;DHT22;11973;52.098;7.582;2023-02-01T07:25:59;6.10;99.90
23591;DHT22;11973;52.098;7.582;2023-02-01T07:28:25;6.10;99.90
23591;DHT22;11973;52.098;7.582;2023-02-01T07:30:51;6.10;99.90
23591;DHT22;11973;52.098;7.582;2023-02-01T07:33:19;6.10;99.90
23591;DHT22;11973;52.098;7.582;2023-02-01T07:35:47;6.10;99.90
23591;DHT22;11973;52.098;7.582;2023-02-01T07:38:12;6.10;99.90
23591;DHT22;11973;52.098;7.582;2023-02-01T07:40:38;6.10;99.90
23591;DHT22;11973;52.098;7.582;2023-02-01T07:43:04;6.10;99.90
23591;DHT22;11973;52.098;7.582;2023-02-01T07:45:31;6.10;99.90
23591;DHT22;11973;52.098;7.582;2023-02-01T07:47:57;6.20;99.90
23591;DHT22;11973;52.098;7.582;2023-02-01T07:50:22;6.20;99.90
23591;DHT22;11973;52.098;7.582;2023-02-01T07:52:48;6.20;99.90
23591;DHT22;11973;52.098;7.582;2023-02-01T07:55:14;6.20;99.90
23591;DHT22;11973;52.098;7.582;2023-02-01T07:57:40;6.20;99.90
23591;DHT22;11973;52.098;7.582;2023-02-01T08:00:06;6.20;99.90
23591;DHT22;11973;52.098;7.582;2023-02-01T08:02:50;6.20;99.90
23591;DHT22;11973;52.098;7.582;2023-02-01T08:05:16;6.30;99.90
23591;DHT22;11973;52.098;7.582;2023-02-01T08:07:41;6.30;99.90
23591;DHT22;11973;52.098;7.582;2023-02-01T08:10:07;6.30;99.90
23591;DHT22;11973;52.098;7.582;2023-02-01T08:12:37;6.30;99.90
23591;DHT22;11973;52.098;7.582;2023-02-01T08:15:03;6.40;99.90
23591;DHT22;11973;52.098;7.582;2023-02-01T08:17:29;6.40;99.90
23591;DHT22;11973;52.098;7.582;2023-02-01T08:19:57;6.40;99.90
23591;DHT22;11973;52.098;7.582;2023-02-01T08:22:22;6.50;99.90
23591;DHT22;11973;52.098;7.582;2023-02-01T08:24:48;6.50;99.90
23591;DHT22;11973;52.098;7.582;2023-02-01T08:27:14;6.50;99.90
23591;DHT22;11973;52.098;7.582;2023-02-01T08:29:40;6.60;99.90
23591;DHT22;11973;52.098;7.582;2023-02-01T08:32:05;6.50;99.90
23591;DHT22;11973;52.098;7.582;2023-02-01T08:34:31;6.60;99.90
23591;DHT22;11973;52.098;7.582;2023-02-01T08:36:57;6.60;99.90
23591;DHT22;11973;52.098;7.582;2023-02-01T08:39:26;6.60;99.90
23591;DHT22;11973;52.098;7.582;2023-02-01T08:41:51;6.60;99.90
23591;DHT22;11973;52.098;7.582;2023-02-01T08:44:36;6.60;99.90
23591;DHT22;11973;52.098;7.582;2023-02-01T08:47:02;6.60;99.90
23591;DHT22;11973;52.098;7.582;2023-02-01T08:49:28;6.60;99.90
23591;DHT22;11973;52.098;7.582;2023-02-01T08:51:54;6.70;99.90
23591;DHT22;11973;52.098;7.582;2023-02-01T08:54:21;6.70;99.90
23591;DHT22;11973;52.098;7.582;2023-02-01T08:56:47;6.80;99.90
23591;DHT22;11973;52.098;7.582;2023-02-01T08:59:12;6.80;99.90
23591;DHT22;11973;52.098;7.582;2023-02-01T09:01:38;6.80;99.90
23591;DHT22;11973;52.098;7.582;2023-02-01T09:04:04;6.90;99.90
23591;DHT22;11973;52.098;7.582;2023-02-01T09:06:29;6.90;99.90
23591;DHT22;11973;52.098;7.582;2023-02-01T09:08:56;6.90;99.90
23591;DHT22;11973;52.098;7.582;2023-02-01T09:11:22;7.00;99.90
23591;DHT22;11973;52.098;7.582;2023-02-01T09:13:48;7.10;99.90
23591;DHT22;11973;52.098;7.582;2023-02-01T09:16:14;7.10;99.90
23591;DHT22;11973;52.098;7.582;2023-02-01T09:18:40;7.20;99.90
23591;DHT22;11973;52.098;7.582;2023-02-01T09:21:06;7.20;99.90
23591;DHT22;11973;52.098;7.582;2023-02-01T09:23:33;7.30;99.90
23591;DHT22;11973;52.098;7.582;2023-02-01T09:26:03;7.30;99.90
23591;DHT22;11973;52.098;7.582;2023-02-01T09:28:29;7.30;99.90
23591;DHT22;11973;52.098;7.582;2023-02-01T09:30:59;7.30;99.90
23591;DHT22;11973;52.098;7.582;2023-02-01T09:33:26;7.40;99.90
23591;DHT22;11973;52.098;7.582;2023-02-01T09:35:59;7.40;99.90
23591;DHT22;11973;52.098;7.582;2023-02-01T09:38:25;7.50;99.90
23591;DHT22;11973;52.098;7.582;2023-02-01T09:40:53;7.50;99.90
23591;DHT22;11973;52.098;7.582;2023-02-01T09:46:23;7.50;99.90
23591;DHT22;11973;52.098;7.582;2023-02-01T09:48:54;7.60;99.90
23591;DHT22;11973;52.098;7.582;2023-02-01T09:51:24;7.60;99.90
23591;DHT22;11973;52.098;7.582;2023-02-01T09:54:02;7.60;99.90
23591;DHT22;11973;52.098;7.582;2023-02-01T09:56:36;7.60;99.90
23591;DHT22;11973;52.098;7.582;2023-02-01T10:01:47;7.60;99.90
23591;DHT22;11973;52.098;7.582;2023-02-01T10:04:14;7.60;99.90
23591;DHT22;11973;52.098;7.582;2023-02-01T10:06:53;7.70;99.90
23591;DHT22;11973;52.098;7.582;2023-02-01T10:09:33;7.70;99.90
23591;DHT22;11973;52.098;7.582;2023-02-01T10:12:48;7.70;99.90
23591;DHT22;11973;52.098;7.582;2023-02-01T10:15:30;7.80;99.90
23591;DHT22;11973;52.098;7.582;2023-02-01T10:21:04;7.80;99.90
23591;DHT22;11973;52.098;7.582;2023-02-01T10:26:24;7.80;99.90
23591;DHT22;11973;52.098;7.582;2023-02-01T10:28:59;7.80;99.90
23591;DHT22;11973;52.098;7.582;2023-02-01T10:31:28;7.80;99.90
23591;DHT22;11973;52.098;7.582;2023-02-01T10:34:00;7.80;99.90
23591;DHT22;11973;52.098;7.582;2023-02-01T10:36:33;7.70;99.90
23591;DHT22;11973;52.098;7.582;2023-02-01T10:39:02;7.80;99.90
23591;DHT22;11973;52.098;7.582;2023-02-01T10:41:36;7.80;99.90
23591;DHT22;11973;52.098;7.582;2023-02-01T10:44:10;7.80;99.90
23591;DHT22;11973;52.098;7.582;2023-02-01T10:46:36;7.80;99.90
23591;DHT22;11973;52.098;7.582;2023-02-01T10:49:03;7.80;99.90
23591;DHT22;11973;52.098;7.582;2023-02-01T10:51:39;7.80;99.90
23591;DHT22;11973;52.098;7.582;2023-02-01T10:54:21;7.80;99.90
23591;DHT22;11973;52.098;7.582;2023-02-01T10:56:49;7.80;99.90
23591;DHT22;11973;52.098;7.582;2023-02-01T10:59:20;7.90;99.90
23591;DHT22;11973;52.098;7.582;2023-02-01T11:01:47;7.80;99.90
23591;DHT22;11973;52.098;7.582;2023-02-01T11:04:20;7.70;99.90
23591;DHT22;11973;52.098;7.582;2023-02-01T11:07:05;7.70;99.90
23591;DHT22;11973;52.098;7.582;2023-02-01T11:09:38;7.70;99.90
23591;DHT22;11973;52.098;7.582;2023-02-01T11:12:04;7.60;99.90
23591;DHT22;11973;52.098;7.582;2023-02-01T11:14:40;7.60;99.90
23591;DHT22;11973;52.098;7.582;2023-02-01T11:19:45;7.50;99.90
23591;DHT22;11973;52.098;7.582;2023-02-01T11:22:12;7.40;99.90
23591;DHT22;11973;52.098;7.582;2023-02-01T11:24:39;7.30;99.90
23591;DHT22;11973;52.098;7.582;2023-02-01T11:27:14;7.20;99.90
23591;DHT22;11973;52.098;7.582;2023-02-01T11:29:43;7.10;99.90
23591;DHT22;11973;52.098;7.582;2023-02-01T11:32:10;7.00;99.90
23591;DHT22;11973;52.098;7.582;2023-02-01T11:34:59;6.90;99.90
23591;DHT22;11973;52.098;7.582;2023-02-01T11:37:37;6.80;99.90
23591;DHT22;11973;52.098;7.582;2023-02-01T11:42:54;6.70;99.90
23591;DHT22;11973;52.098;7.582;2023-02-01T11:45:25;6.60;99.90
23591;DHT22;11973;52.098;7.582;2023-02-01T11:47:52;6.60;99.90
23591;DHT22;11973;52.098;7.582;2023-02-01T11:50:25;6.50;99.90
23591;DHT22;11973;52.098;7.582;2023-02-01T11:55:42;6.50;99.90
23591;DHT22;11973;52.098;7.582;2023-02-01T12:06:53;6.30;99.90
23591;DHT22;11973;52.098;7.582;2023-02-01T12:12:21;6.30;99.90
23591;DHT22;11973;52.098;7.582;2023-02-01T12:20:59;6.20;99.90
23591;DHT22;11973;52.098;7.582;2023-02-01T12:26:45;6.20;99.90
23591;DHT22;11973;52.098;7.582;2023-02-01T12:35:02;6.40;99.90
23591;DHT22;11973;52.098;7.582;2023-02-01T12:37:44;6.40;99.90
23591;DHT22;11973;52.098;7.582;2023-02-01T12:40:19;6.50;99.90
23591;DHT22;11973;52.098;7.582;2023-02-01T12:43:11;6.50;99.90
23591;DHT22;11973;52.098;7.582;2023-02-01T12:45:41;6.50;99.90
23591;DHT22;11973;52.098;7.582;2023-02-01T12:48:32;6.60;99.90
23591;DHT22;11973;52.098;7.582;2023-02-01T12:51:04;6.60;99.90
23591;DHT22;11973;52.098;7.582;2023-02-01T12:56:13;6.60;99.90
23591;DHT22;11973;52.098;7.582;2023-02-01T12:58:44;6.70;99.90
23591;DHT22;11973;52.098;7.582;2023-02-01T13:01:20;6.70;99.90
23591;DHT22;11973;52.098;7.582;2023-02-01T13:03:59;6.80;99.90
23591;DHT22;11973;52.098;7.582;2023-02-01T13:06:33;6.80;99.90
23591;DHT22;11973;52.098;7.582;2023-02-01T13:09:27;6.90;99.90
23591;DHT22;11973;52.098;7.582;2023-02-01T13:11:55;7.00;99.90
23591;DHT22;11973;52.098;7.582;2023-02-01T13:14:53;7.10;99.90
23591;DHT22;11973;52.098;7.582;2023-02-01T13:17:25;7.10;99.90
23591;DHT22;11973;52.098;7.582;2023-02-01T13:22:46;7.10;99.90
23591;DHT22;11973;52.098;7.582;2023-02-01T13:25:35;7.10;99.90
23591;DHT22;11973;52.098;7.582;2023-02-01T13:33:26;7.10;99.90
23591;DHT22;11973;52.098;7.582;2023-02-01T13:42:02;7.30;99.90
23591;DHT22;11973;52.098;7.582;2023-02-01T13:44:40;7.40;99.90
23591;DHT22;11973;52.098;7.582;2023-02-01T13:49:57;7.40;99.90
23591;DHT22;11973;52.098;7.582;2023-02-01T13:52:37;7.40;99.90
23591;DHT22;11973;52.098;7.582;2023-02-01T13:55:14;7.40;99.90
23591;DHT22;11973;52.098;7.582;2023-02-01T13:57:42;7.30;99.90
23591;DHT22;11973;52.098;7.582;2023-02-01T14:00:37;7.30;99.90
23591;DHT22;11973;52.098;7.582;2023-02-01T14:03:08;7.30;99.90
23591;DHT22;11973;52.098;7.582;2023-02-01T14:05:55;7.20;99.90
23591;DHT22;11973;52.098;7.582;2023-02-01T14:08:42;7.10;99.90
23591;DHT22;11973;52.098;7.582;2023-02-01T14:11:35;7.10;99.90
23591;DHT22;11973;52.098;7.582;2023-02-01T14:21:56;6.90;99.90
23591;DHT22;11973;52.098;7.582;2023-02-01T14:24:29;6.90;99.90
23591;DHT22;11973;52.098;7.582;2023-02-01T14:26:58;6.90;99.90
23591;DHT22;11973;52.098;7.582;2023-02-01T14:34:48;6.80;99.90
23591;DHT22;11973;52.098;7.582;2023-02-01T14:44:40;6.80;99.90
23591;DHT22;11973;52.098;7.582;2023-02-01T14:50:03;6.90;99.90
23591;DHT22;11973;52.098;7.582;2023-02-01T14:57:59;7.00;99.90
23591;DHT22;11973;52.098;7.582;2023-02-01T15:00:29;7.00;99.90
23591;DHT22;11973;52.098;7.582;2023-02-01T15:05:57;6.90;99.90
23591;DHT22;11973;52.098;7.582;2023-02-01T15:08:37;6.90;99.90
23591;DHT22;11973;52.098;7.582;2023-02-01T15:11:11;6.90;99.90
23591;DHT22;11973;52.098;7.582;2023-02-01T15:13:38;6.80;99.90
23591;DHT22;11973;52.098;7.582;2023-02-01T15:16:13;6.80;99.90
23591;DHT22;11973;52.098;7.582;2023-02-01T15:18:39;6.70;99.90
23591;DHT22;11973;52.098;7.582;2023-02-01T15:21:07;6.60;99.90
23591;DHT22;11973;52.098;7.582;2023-02-01T15:23:40;6.60;99.90
23591;DHT22;11973;52.098;7.582;2023-02-01T15:26:05;6.60;99.90
23591;DHT22;11973;52.098;7.582;2023-02-01T15:28:31;6.50;99.90
23591;DHT22;11973;52.098;7.582;2023-02-01T15:30:59;6.50;99.90
23591;DHT22;11973;52.098;7.582;2023-02-01T15:33:27;6.40;99.90
23591;DHT22;11973;52.098;7.582;2023-02-01T15:41:04;6.30;99.90
23591;DHT22;11973;52.098;7.582;2023-02-01T15:43:36;6.30;99.90
23591;DHT22;11973;52.098;7.582;2023-02-01T15:46:08;6.30;99.90
23591;DHT22;11973;52.098;7.582;2023-02-01T15:48:49;6.40;99.90
23591;DHT22;11973;52.098;7.582;2023-02-01T15:51:27;6.30;99.90
23591;DHT22;11973;52.098;7.582;2023-02-01T15:53:57;6.30;99.90
23591;DHT22;11973;52.098;7.582;2023-02-01T15:56:26;6.20;99.90
23591;DHT22;11973;52.098;7.582;2023-02-01T15:58:58;6.20;99.90
23591;DHT22;11973;52.098;7.582;2023-02-01T16:01:24;6.20;99.90
23591;DHT22;11973;52.098;7.582;2023-02-01T16:04:15;6.20;99.90
23591;DHT22;11973;52.098;7.582;2023-02-01T16:06:50;6.20;99.90
23591;DHT22;11973;52.098;7.582;2023-02-01T16:09:18;6.20;99.90
23591;DHT22;11973;52.098;7.582;2023-02-01T16:11:53;6.20;99.90
23591;DHT22;11973;52.098;7.582;2023-02-01T16:14:20;6.20;99.90
23591;DHT22;11973;52.098;7.582;2023-02-01T16:16:46;6.10;99.90
23591;DHT22;11973;52.098;7.582;2023-02-01T16:19:12;6.10;99.90
23591;DHT22;11973;52.098;7.582;2023-02-01T16:21:37;6.00;99.90
23591;DHT22;11973;52.098;7.582;2023-02-01T16:24:04;6.00;99.90
23591;DHT22;11973;52.098;7.582;2023-02-01T16:26:30;6.00;99.90
23591;DHT22;11973;52.098;7.582;2023-02-01T16:28:57;5.90;99.90
23591;DHT22;11973;52.098;7.582;2023-02-01T16:31:31;5.90;99.90
23591;DHT22;11973;52.098;7.582;2023-02-01T16:33:58;5.80;99.90
23591;DHT22;11973;52.098;7.582;2023-02-01T16:36:25;5.90;99.90
23591;DHT22;11973;52.098;7.582;2023-02-01T16:38:50;5.90;99.90
23591;DHT22;11973;52.098;7.582;2023-02-01T16:41:20;5.90;99.90
23591;DHT22;11973;52.098;7.582;2023-02-01T16:43:49;5.90;99.90
23591;DHT22;11973;52.098;7.582;2023-02-01T16:46:17;5.90;99.90
23591;DHT22;11973;52.098;7.582;2023-02-01T16:48:55;6.00;99.90
23591;DHT22;11973;52.098;7.582;2023-02-01T16:51:24;6.00;99.90
23591;DHT22;11973;52.098;7.582;2023-02-01T16:53:50;6.00;99.90
23591;DHT22;11973;52.098;7.582;2023-02-01T16:56:19;6.00;99.90
23591;DHT22;11973;52.098;7.582;2023-02-01T16:58:45;6.00;99.90
23591;DHT22;11973;52.098;7.582;2023-02-01T17:01:13;6.10;99.90
23591;DHT22;11973;52.098;7.582;2023-02-01T17:03:40;6.10;99.90
23591;DHT22;11973;52.098;7.582;2023-02-01T17:06:09;6.10;99.90
23591;DHT22;11973;52.098;7.582;2023-02-01T17:08:38;6.00;99.90
23591;DHT22;11973;52.098;7.582;2023-02-01T17:11:06;6.10;99.90
23591;DHT22;11973;52.098;7.582;2023-02-01T17:13:33;6.10;99.90
23591;DHT22;11973;52.098;7.582;2023-02-01T17:18:57;6.10;99.90
23591;DHT22;11973;52.098;7.582;2023-02-01T17:21:25;6.10;99.90
23591;DHT22;11973;52.098;7.582;2023-02-01T17:23:51;6.10;99.90
23591;DHT22;11973;52.098;7.582;2023-02-01T17:26:18;6.10;99.90
23591;DHT22;11973;52.098;7.582;2023-02-01T17:28:44;6.10;99.90
23591;DHT22;11973;52.098;7.582;2023-02-01T17:31:13;6.10;99.90
23591;DHT22;11973;52.098;7.582;2023-02-01T17:33:43;6.10;99.90
23591;DHT22;11973;52.098;7.582;2023-02-01T17:36:12;6.10;99.90
23591;DHT22;11973;52.098;7.582;2023-02-01T17:38:39;6.20;99.90
23591;DHT22;11973;52.098;7.582;2023-02-01T17:41:04;6.20;99.90
23591;DHT22;11973;52.098;7.582;2023-02-01T17:43:30;6.20;99.90
23591;DHT22;11973;52.098;7.582;2023-02-01T17:46:10;6.20;99.90
23591;DHT22;11973;52.098;7.582;2023-02-01T17:48:37;6.20;99.90
23591;DHT22;11973;52.098;7.582;2023-02-01T17:51:04;6.20;99.90
23591;DHT22;11973;52.098;7.582;2023-02-01T17:53:30;6.20;99.90
23591;DHT22;11973;52.098;7.582;2023-02-01T17:55:58;6.20;99.90
23591;DHT22;11973;52.098;7.582;2023-02-01T17:58:24;6.20;99.90
23591;DHT22;11973;52.098;7.582;2023-02-01T18:00:51;6.20;99.90
23591;DHT22;11973;52.098;7.582;2023-02-01T18:03:28;6.30;99.90
23591;DHT22;11973;52.098;7.582;2023-02-01T18:05:57;6.30;99.90
23591;DHT22;11973;52.098;7.582;2023-02-01T18:08:29;6.30;99.90
23591;DHT22;11973;52.098;7.582;2023-02-01T18:10:59;6.40;99.90
23591;DHT22;11973;52.098;7.582;2023-02-01T18:13:29;6.40;99.90
23591;DHT22;11973;52.098;7.582;2023-02-01T18:15:56;6.40;99.90
23591;DHT22;11973;52.098;7.582;2023-02-01T18:18:24;6.40;99.90
23591;DHT22;11973;52.098;7.582;2023-02-01T18:20:50;6.50;99.90
23591;DHT22;11973;52.098;7.582;2023-02-01T18:23:21;6.40;99.90
23591;DHT22;11973;52.098;7.582;2023-02-01T18:25:48;6.50;99.90
23591;DHT22;11973;52.098;7.582;2023-02-01T18:28:14;6.50;99.90
23591;DHT22;11973;52.098;7.582;2023-02-01T18:30:41;6.60;99.90
23591;DHT22;11973;52.098;7.582;2023-02-01T18:33:14;6.60;99.90
23591;DHT22;11973;52.098;7.582;2023-02-01T18:35:41;6.60;99.90
23591;DHT22;11973;52.098;7.582;2023-02-01T18:38:07;6.50;99.90
23591;DHT22;11973;52.098;7.582;2023-02-01T18:40:38;6.60;99.90
23591;DHT22;11973;52.098;7.582;2023-02-01T18:43:04;6.60;99.90
23591;DHT22;11973;52.098;7.582;2023-02-01T18:45:35;6.50;99.90
23591;DHT22;11973;52.098;7.582;2023-02-01T18:48:02;6.50;99.90
23591;DHT22;11973;52.098;7.582;2023-02-01T18:50:29;6.50;99.90
23591;DHT22;11973;52.098;7.582;2023-02-01T18:52:57;6.50;99.90
23591;DHT22;11973;52.098;7.582;2023-02-01T18:55:24;6.40;99.90
23591;DHT22;11973;52.098;7.582;2023-02-01T18:57:51;6.40;99.90
23591;DHT22;11973;52.098;7.582;2023-02-01T19:00:18;6.40;99.90
23591;DHT22;11973;52.098;7.582;2023-02-01T19:02:44;6.40;99.90
23591;DHT22;11973;52.098;7.582;2023-02-01T19:05:10;6.40;99.90
23591;DHT22;11973;52.098;7.582;2023-02-01T19:07:36;6.40;99.90
23591;DHT22;11973;52.098;7.582;2023-02-01T19:10:06;6.40;99.90
23591;DHT22;11973;52.098;7.582;2023-02-01T19:12:33;6.30;99.90